Wetterdaten: Woche 22.08.16 - 28.08.16 (KW34)
Datum Zeit Temp. A. Feuchte A. Luftdruck Regen Wind Richtung Taupunkt Windchill Windben
22.08.2016 00:00 16,5 C 82 % 1020,2 hPa 0,5 l/m 8,0 km/h N 13,4 C 15,7 C 23,7 km/h
22.08.2016 01:00 16,5 C 81 % 1020,5 hPa 0,0 l/m 8,7 km/h N 13,3 C 15,4 C 20,9 km/h
22.08.2016 02:00 16,6 C 78 % 1020,3 hPa 0,0 l/m 9,8 km/h N 12,7 C 15,0 C 25,7 km/h
22.08.2016 03:00 16,6 C 76 % 1020,5 hPa 0,0 l/m 12,0 km/h N 12,4 C 14,1 C 29,4 km/h
22.08.2016 04:00 16,5 C 76 % 1021,1 hPa 0,0 l/m 12,5 km/h N 12,2 C 13,8 C 28,2 km/h
22.08.2016 05:00 16,3 C 75 % 1021,2 hPa 0,0 l/m 13,4 km/h N 11,9 C 13,3 C 32,6 km/h
22.08.2016 06:00 16,2 C 75 % 1021,7 hPa 0,0 l/m 15,1 km/h N 11,7 C 12,6 C 34,2 km/h
22.08.2016 07:00 16,1 C 75 % 1022,3 hPa 0,0 l/m 13,9 km/h N 11,7 C 12,9 C 33,8 km/h
22.08.2016 08:00 16,2 C 76 % 1022,9 hPa 0,0 l/m 13,2 km/h N 11,9 C 13,2 C 32,2 km/h
22.08.2016 09:00 16,5 C 75 % 1023,5 hPa 0,0 l/m 13,7 km/h N 12,0 C 13,4 C 32,2 km/h
22.08.2016 10:00 16,9 C 75 % 1023,8 hPa 0,0 l/m 11,6 km/h N 12,4 C 14,6 C 27,0 km/h
22.08.2016 11:00 17,0 C 75 % 1023,8 hPa 0,0 l/m 11,6 km/h N 12,5 C 14,7 C 25,7 km/h
22.08.2016 12:00 17,4 C 76 % 1024,0 hPa 0,0 l/m 7,6 km/h N 13,1 C 16,8 C 21,7 km/h
22.08.2016 13:00 18,4 C 73 % 1023,9 hPa 0,0 l/m 10,9 km/h N 13,3 C 16,6 C 26,1 km/h
22.08.2016 14:00 19,5 C 72 % 1023,9 hPa 0,0 l/m 9,3 km/h N 14,2 C 18,3 C 24,1 km/h
22.08.2016 15:00 19,9 C 72 % 1023,8 hPa 0,0 l/m 7,4 km/h N 14,6 C 19,4 C 22,5 km/h
22.08.2016 16:00 20,1 C 71 % 1023,8 hPa 0,0 l/m 7,1 km/h N 14,6 C 19,8 C 20,5 km/h
22.08.2016 17:00 20,3 C 70 % 1023,8 hPa 0,0 l/m 6,8 km/h N 14,7 C 19,9 C 20,5 km/h
22.08.2016 18:00 19,9 C 71 % 1024,1 hPa 0,0 l/m 4,8 km/h N 14,4 C 19,9 C 13,7 km/h
22.08.2016 19:00 19,3 C 72 % 1024,6 hPa 0,0 l/m 4,8 km/h N 14,1 C 19,3 C 14,9 km/h
22.08.2016 20:00 19,0 C 71 % 1025,1 hPa 0,0 l/m 5,8 km/h N 13,7 C 18,9 C 17,7 km/h
22.08.2016 21:00 18,5 C 73 % 1025,8 hPa 0,0 l/m 7,2 km/h N 13,5 C 18,0 C 19,3 km/h
22.08.2016 22:00 18,1 C 73 % 1026,0 hPa 0,0 l/m 6,5 km/h N 13,2 C 18,0 C 18,5 km/h
22.08.2016 23:00 17,8 C 74 % 1026,1 hPa 0,0 l/m 5,7 km/h N 13,2 C 17,6 C 16,5 km/h
23.08.2016 00:00 17,7 C 73 % 1026,2 hPa 0,0 l/m 6,9 km/h N 12,9 C 17,5 C 18,1 km/h
23.08.2016 01:00 17,6 C 73 % 1026,2 hPa 0,0 l/m 5,3 km/h N 12,7 C 17,6 C 14,1 km/h
23.08.2016 02:00 17,3 C 72 % 1026,2 hPa 0,0 l/m 3,7 km/h N 12,2 C 17,3 C 13,3 km/h
23.08.2016 03:00 17,0 C 72 % 1026,0 hPa 0,0 l/m 1,5 km/h N 12,0 C 17,0 C 9,3 km/h
23.08.2016 04:00 16,4 C 74 % 1026,1 hPa 0,0 l/m 1,8 km/h N 11,7 C 16,4 C 8,4 km/h
23.08.2016 05:00 16,3 C 74 % 1026,1 hPa 0,0 l/m 2,3 km/h N 11,7 C 16,3 C 10,9 km/h
23.08.2016 06:00 15,9 C 76 % 1026,5 hPa 0,0 l/m 2,0 km/h N 11,6 C 15,9 C 10,0 km/h
23.08.2016 07:00 16,5 C 75 % 1027,0 hPa 0,0 l/m 4,1 km/h N 12,1 C 16,5 C 13,7 km/h
23.08.2016 08:00 18,0 C 71 % 1027,0 hPa 0,0 l/m 8,6 km/h N 12,6 C 16,9 C 23,3 km/h
23.08.2016 09:00 19,7 C 67 % 1026,9 hPa 0,0 l/m 9,5 km/h N 13,2 C 18,4 C 22,5 km/h
23.08.2016 10:00 20,8 C 65 % 1026,8 hPa 0,0 l/m 8,7 km/h N 13,9 C 20,0 C 20,1 km/h
23.08.2016 11:00 21,8 C 63 % 1026,5 hPa 0,0 l/m 7,8 km/h N 14,5 C 21,3 C 23,3 km/h
23.08.2016 12:00 22,8 C 60 % 1025,8 hPa 0,0 l/m 7,6 km/h N 14,5 C 22,4 C 22,1 km/h
23.08.2016 13:00 23,6 C 57 % 1025,5 hPa 0,0 l/m 7,5 km/h N 14,5 C 23,2 C 22,1 km/h
23.08.2016 14:00 24,2 C 56 % 1025,1 hPa 0,0 l/m 8,1 km/h N 14,7 C 23,8 C 22,5 km/h
23.08.2016 15:00 24,4 C 55 % 1024,6 hPa 0,0 l/m 8,8 km/h N 14,8 C 23,7 C 24,1 km/h
23.08.2016 16:00 24,7 C 56 % 1024,2 hPa 0,0 l/m 7,3 km/h N 15,4 C 24,5 C 20,5 km/h
23.08.2016 17:00 24,6 C 56 % 1024,0 hPa 0,0 l/m 8,5 km/h N 15,3 C 24,1 C 22,5 km/h
23.08.2016 18:00 24,3 C 58 % 1023,9 hPa 0,0 l/m 6,2 km/h N 15,6 C 24,1 C 20,5 km/h
23.08.2016 19:00 23,4 C 62 % 1024,0 hPa 0,0 l/m 4,3 km/h N 15,6 C 23,4 C 16,1 km/h
23.08.2016 20:00 22,3 C 65 % 1024,3 hPa 0,0 l/m 2,2 km/h N 15,5 C 22,3 C 10,5 km/h
23.08.2016 21:00 21,2 C 69 % 1024,7 hPa 0,0 l/m 0,4 km/h N 15,3 C 21,2 C 5,2 km/h
23.08.2016 22:00 20,8 C 70 % 1024,7 hPa 0,0 l/m 1,5 km/h N 15,2 C 20,8 C 8,4 km/h
23.08.2016 23:00 20,7 C 71 % 1024,8 hPa 0,0 l/m 1,3 km/h N 15,2 C 20,7 C 6,0 km/h
24.08.2016 00:00 19,8 C 74 % 1025,0 hPa 0,0 l/m 0,4 km/h N 14,9 C 19,8 C 3,6 km/h
24.08.2016 01:00 19,0 C 76 % 1024,9 hPa 0,0 l/m 0,2 km/h N 14,6 C 19,0 C 3,6 km/h
24.08.2016 02:00 17,9 C 78 % 1024,8 hPa 0,0 l/m 0,0 km/h N 14,0 C 17,9 C 0,4 km/h
24.08.2016 03:00 16,6 C 80 % 1024,7 hPa 0,0 l/m 0,0 km/h N 13,0 C 16,6 C 0,0 km/h
24.08.2016 04:00 15,9 C 82 % 1024,7 hPa 0,0 l/m 0,0 km/h N 12,8 C 15,9 C 0,4 km/h
24.08.2016 05:00 16,3 C 82 % 1024,6 hPa 0,0 l/m 0,0 km/h N 13,2 C 16,3 C 0,0 km/h
24.08.2016 06:00 16,3 C 82 % 1024,9 hPa 0,0 l/m 0,0 km/h N 13,3 C 16,3 C 0,4 km/h
24.08.2016 07:00 16,9 C 82 % 1025,2 hPa 0,0 l/m 0,0 km/h N 13,8 C 16,9 C 1,2 km/h
24.08.2016 08:00 18,8 C 80 % 1025,1 hPa 0,0 l/m 0,7 km/h N 15,3 C 18,8 C 5,2 km/h
24.08.2016 09:00 21,8 C 72 % 1025,0 hPa 0,0 l/m 1,0 km/h N 16,5 C 21,8 C 7,6 km/h
24.08.2016 10:00 22,4 C 69 % 1024,8 hPa 0,0 l/m 1,1 km/h N 16,4 C 22,4 C 6,8 km/h
24.08.2016 11:00 23,1 C 67 % 1024,7 hPa 0,0 l/m 2,3 km/h N 16,6 C 23,1 C 10,5 km/h
24.08.2016 12:00 23,6 C 65 % 1024,3 hPa 0,0 l/m 2,6 km/h N 16,5 C 23,6 C 12,1 km/h
24.08.2016 13:00 24,5 C 61 % 1023,9 hPa 0,0 l/m 2,9 km/h N 16,3 C 24,5 C 12,9 km/h
24.08.2016 14:00 24,5 C 60 % 1023,7 hPa 0,0 l/m 3,1 km/h N 16,1 C 24,5 C 14,1 km/h
24.08.2016 15:00 24,5 C 59 % 1023,2 hPa 0,0 l/m 3,2 km/h N 15,9 C 24,5 C 14,1 km/h
24.08.2016 16:00 24,9 C 57 % 1023,0 hPa 0,0 l/m 2,7 km/h N 15,7 C 24,9 C 11,6 km/h
24.08.2016 17:00 25,0 C 56 % 1022,9 hPa 0,0 l/m 1,9 km/h N 15,6 C 25,0 C 10,9 km/h
24.08.2016 18:00 24,6 C 56 % 1022,8 hPa 0,0 l/m 2,0 km/h N 15,3 C 24,6 C 10,1 km/h
24.08.2016 19:00 23,7 C 59 % 1022,5 hPa 0,0 l/m 0,9 km/h N 15,1 C 23,7 C 8,4 km/h
24.08.2016 20:00 22,1 C 64 % 1022,8 hPa 0,0 l/m 0,1 km/h N 14,9 C 22,1 C 2,0 km/h
24.08.2016 21:00 19,6 C 72 % 1023,1 hPa 0,0 l/m 0,0 km/h N 14,3 C 19,6 C 0,0 km/h
24.08.2016 22:00 17,7 C 78 % 1023,2 hPa 0,0 l/m 0,0 km/h N 13,8 C 17,7 C 0,4 km/h
24.08.2016 23:00 16,9 C 81 % 1023,3 hPa 0,0 l/m 0,0 km/h N 13,5 C 16,9 C 0,8 km/h
25.08.2016 00:00 16,5 C 81 % 1023,3 hPa 0,0 l/m 0,0 km/h N 13,2 C 16,5 C 0,8 km/h
25.08.2016 01:00 15,9 C 81 % 1023,2 hPa 0,0 l/m 0,0 km/h N 12,7 C 15,9 C 0,4 km/h
25.08.2016 02:00 15,2 C 82 % 1022,9 hPa 0,0 l/m 0,0 km/h N 12,1 C 15,2 C 0,0 km/h
25.08.2016 03:00 14,6 C 82 % 1022,6 hPa 0,0 l/m 0,0 km/h N 11,6 C 14,6 C 0,8 km/h
25.08.2016 04:00 14,3 C 82 % 1022,3 hPa 0,0 l/m 0,0 km/h N 11,2 C 14,3 C 0,8 km/h
25.08.2016 05:00 13,9 C 82 % 1022,4 hPa 0,0 l/m 0,0 km/h N 10,9 C 13,9 C 1,2 km/h
25.08.2016 06:00 13,5 C 82 % 1022,7 hPa 0,0 l/m 0,0 km/h N 10,5 C 13,5 C 1,2 km/h
25.08.2016 07:00 13,8 C 82 % 1022,8 hPa 0,0 l/m 0,0 km/h N 10,8 C 13,8 C 0,0 km/h
25.08.2016 08:00 15,4 C 82 % 1022,8 hPa 0,0 l/m 0,0 km/h N 12,3 C 15,4 C 0,8 km/h
25.08.2016 09:00 18,8 C 79 % 1022,7 hPa 0,0 l/m 0,1 km/h N 15,1 C 18,8 C 2,4 km/h
25.08.2016 10:00 22,5 C 68 % 1022,7 hPa 0,0 l/m 0,2 km/h N 16,3 C 22,5 C 3,6 km/h
25.08.2016 11:00 24,1 C 64 % 1022,4 hPa 0,0 l/m 0,5 km/h N 16,7 C 24,1 C 5,2 km/h
25.08.2016 12:00 25,2 C 61 % 1021,9 hPa 0,0 l/m 0,4 km/h N 17,0 C 25,2 C 4,8 km/h
25.08.2016 13:00 26,4 C 55 % 1021,4 hPa 0,0 l/m 0,6 km/h N 16,6 C 26,4 C 5,2 km/h
25.08.2016 14:00 26,6 C 54 % 1021,2 hPa 0,0 l/m 1,0 km/h N 16,5 C 26,6 C 8,0 km/h
25.08.2016 15:00 26,3 C 54 % 1020,8 hPa 0,0 l/m 0,6 km/h N 16,1 C 26,3 C 6,4 km/h
25.08.2016 16:00 25,9 C 51 % 1020,7 hPa 0,0 l/m 0,6 km/h N 14,9 C 25,9 C 5,6 km/h
25.08.2016 17:00 25,8 C 50 % 1020,3 hPa 0,0 l/m 0,9 km/h N 14,5 C 25,8 C 8,8 km/h
25.08.2016 18:00 25,3 C 51 % 1019,9 hPa 0,0 l/m 0,4 km/h N 14,3 C 25,3 C 6,4 km/h
25.08.2016 19:00 24,4 C 54 % 1020,0 hPa 0,0 l/m 0,2 km/h N 14,5 C 24,4 C 4,4 km/h
25.08.2016 20:00 22,2 C 63 % 1020,7 hPa 0,0 l/m 0,0 km/h N 14,8 C 22,2 C 0,0 km/h
25.08.2016 21:00 19,4 C 74 % 1021,2 hPa 0,0 l/m 0,0 km/h N 14,6 C 19,4 C 0,8 km/h
25.08.2016 22:00 18,8 C 76 % 1021,0 hPa 0,0 l/m 0,1 km/h N 14,4 C 18,8 C 2,4 km/h
25.08.2016 23:00 18,5 C 76 % 1020,8 hPa 0,0 l/m 0,1 km/h N 14,1 C 18,5 C 1,2 km/h
26.08.2016 00:00 17,4 C 78 % 1020,8 hPa 0,0 l/m 0,0 km/h N 13,6 C 17,4 C 1,2 km/h
26.08.2016 01:00 16,8 C 79 % 1020,7 hPa 0,0 l/m 0,0 km/h N 13,2 C 16,8 C 0,0 km/h
26.08.2016 02:00 15,5 C 81 % 1020,4 hPa 0,0 l/m 0,0 km/h N 12,2 C 15,5 C 0,0 km/h
26.08.2016 03:00 14,6 C 82 % 1020,4 hPa 0,0 l/m 0,0 km/h N 11,6 C 14,6 C 0,0 km/h
26.08.2016 04:00 14,0 C 82 % 1020,4 hPa 0,0 l/m 0,0 km/h N 11,0 C 14,0 C 0,0 km/h
26.08.2016 05:00 13,6 C 82 % 1020,4 hPa 0,0 l/m 0,0 km/h N 10,6 C 13,6 C 0,0 km/h
26.08.2016 06:00 13,2 C 82 % 1020,5 hPa 0,0 l/m 0,0 km/h N 10,2 C 13,2 C 0,4 km/h
26.08.2016 07:00 14,0 C 82 % 1020,7 hPa 0,0 l/m 0,0 km/h N 10,9 C 14,0 C 1,2 km/h
26.08.2016 08:00 15,3 C 82 % 1020,8 hPa 0,0 l/m 0,0 km/h N 12,2 C 15,3 C 4,0 km/h
26.08.2016 09:00 19,3 C 78 % 1020,5 hPa 0,0 l/m 1,6 km/h N 15,2 C 19,3 C 9,6 km/h
26.08.2016 10:00 23,8 C 62 % 1020,5 hPa 0,0 l/m 2,4 km/h N 16,0 C 23,8 C 12,9 km/h
26.08.2016 11:00 25,5 C 56 % 1020,5 hPa 0,0 l/m 3,2 km/h N 16,1 C 25,5 C 14,5 km/h
26.08.2016 12:00 26,5 C 54 % 1020,3 hPa 0,0 l/m 3,2 km/h N 16,5 C 26,5 C 16,1 km/h
26.08.2016 13:00 27,6 C 48 % 1020,0 hPa 0,0 l/m 3,2 km/h N 15,4 C 27,6 C 15,3 km/h
26.08.2016 14:00 28,2 C 47 % 1019,8 hPa 0,0 l/m 3,2 km/h N 15,8 C 28,2 C 10,5 km/h
26.08.2016 15:00 27,7 C 46 % 1019,7 hPa 0,0 l/m 3,2 km/h N 14,8 C 27,7 C 15,3 km/h
26.08.2016 16:00 27,3 C 47 % 1019,5 hPa 0,0 l/m 2,4 km/h N 15,0 C 27,3 C 10,5 km/h
26.08.2016 17:00 26,7 C 48 % 1019,3 hPa 0,0 l/m 1,6 km/h N 14,8 C 26,7 C 12,9 km/h
26.08.2016 18:00 26,1 C 50 % 1019,3 hPa 0,0 l/m 1,6 km/h N 14,7 C 26,1 C 10,5 km/h
26.08.2016 19:00 25,0 C 52 % 1019,5 hPa 0,0 l/m 0,8 km/h N 14,4 C 25,0 C 8,1 km/h
26.08.2016 20:00 23,5 C 56 % 1019,7 hPa 0,0 l/m 0,0 km/h N 14,1 C 23,5 C 4,0 km/h
26.08.2016 21:00 21,7 C 61 % 1019,8 hPa 0,0 l/m 0,0 km/h N 13,7 C 21,7 C 1,6 km/h
26.08.2016 22:00 19,1 C 70 % 1019,8 hPa 0,0 l/m 0,0 km/h N 13,5 C 19,1 C 0,0 km/h
26.08.2016 23:00 17,4 C 76 % 1019,8 hPa 0,0 l/m 0,0 km/h N 13,0 C 17,4 C 0,8 km/h
27.08.2016 00:00 16,4 C 79 % 1019,5 hPa 0,0 l/m 0,0 km/h N 12,7 C 16,4 C 0,8 km/h
27.08.2016 01:00 15,3 C 81 % 1019,6 hPa 0,0 l/m 0,0 km/h N 11,9 C 15,3 C 0,0 km/h
27.08.2016 02:00 14,5 C 82 % 1019,5 hPa 0,0 l/m 0,0 km/h N 11,4 C 14,5 C 0,0 km/h
27.08.2016 03:00 13,9 C 82 % 1019,8 hPa 0,0 l/m 0,0 km/h N 10,8 C 13,9 C 0,0 km/h
27.08.2016 04:00 13,4 C 82 % 1019,8 hPa 0,0 l/m 0,0 km/h N 10,3 C 13,4 C 0,0 km/h
27.08.2016 05:00 13,0 C 82 % 1020,0 hPa 0,0 l/m 0,0 km/h N 10,0 C 13,0 C 0,0 km/h
27.08.2016 06:00 12,7 C 82 % 1020,0 hPa 0,0 l/m 0,0 km/h N 9,7 C 12,7 C 0,0 km/h
27.08.2016 07:00 13,5 C 82 % 1020,2 hPa 0,0 l/m 0,0 km/h N 10,5 C 13,5 C 0,0 km/h
27.08.2016 08:00 15,4 C 82 % 1020,1 hPa 0,0 l/m 0,0 km/h N 12,4 C 15,4 C 1,6 km/h
27.08.2016 09:00 18,5 C 82 % 1020,3 hPa 0,0 l/m 0,0 km/h N 15,4 C 18,5 C 1,6 km/h
27.08.2016 10:00 23,5 C 69 % 1020,1 hPa 0,0 l/m 0,0 km/h N 17,4 C 23,5 C 3,2 km/h
27.08.2016 11:00 27,1 C 60 % 1019,7 hPa 0,0 l/m 0,0 km/h N 18,5 C 27,1 C 5,6 km/h
27.08.2016 12:00 29,8 C 52 % 1019,2 hPa 0,0 l/m 1,6 km/h N 18,7 C 29,8 C 11,3 km/h
27.08.2016 13:00 30,2 C 49 % 1019,0 hPa 0,0 l/m 2,4 km/h N 18,1 C 30,2 C 10,5 km/h
27.08.2016 14:00 30,0 C 48 % 1018,8 hPa 0,0 l/m 3,2 km/h N 17,8 C 30,0 C 12,1 km/h
27.08.2016 15:00 29,7 C 48 % 1018,6 hPa 0,0 l/m 1,6 km/h N 17,3 C 29,7 C 9,6 km/h
27.08.2016 16:00 29,3 C 47 % 1018,2 hPa 0,0 l/m 1,6 km/h N 16,8 C 29,3 C 9,7 km/h
27.08.2016 17:00 28,8 C 48 % 1017,9 hPa 0,0 l/m 3,2 km/h N 16,5 C 28,8 C 14,5 km/h
27.08.2016 18:00 28,3 C 49 % 1017,7 hPa 0,0 l/m 3,2 km/h N 16,3 C 28,3 C 14,5 km/h
27.08.2016 19:00 27,2 C 52 % 1017,5 hPa 0,0 l/m 2,4 km/h N 16,5 C 27,2 C 8,9 km/h
27.08.2016 20:00 25,3 C 58 % 1017,6 hPa 0,0 l/m 0,8 km/h N 16,3 C 25,3 C 5,6 km/h
27.08.2016 21:00 23,5 C 65 % 1017,7 hPa 0,0 l/m 0,0 km/h N 16,5 C 23,5 C 2,4 km/h
27.08.2016 22:00 21,3 C 72 % 1017,5 hPa 0,0 l/m 0,0 km/h N 15,9 C 21,3 C 0,8 km/h
27.08.2016 23:00 19,3 C 78 % 1017,5 hPa 0,0 l/m 0,0 km/h N 15,4 C 19,3 C 0,0 km/h
28.08.2016 00:00 18,0 C 81 % 1017,5 hPa 0,0 l/m 0,0 km/h N 14,6 C 18,0 C 0,0 km/h
28.08.2016 01:00 17,0 C 81 % 1017,2 hPa 0,0 l/m 0,0 km/h N 13,7 C 17,0 C 0,0 km/h
28.08.2016 02:00 16,3 C 82 % 1016,8 hPa 0,0 l/m 0,0 km/h N 13,2 C 16,3 C 0,0 km/h
28.08.2016 03:00 15,8 C 82 % 1016,6 hPa 0,0 l/m 0,0 km/h N 12,7 C 15,8 C 0,0 km/h
28.08.2016 04:00 15,3 C 82 % 1016,3 hPa 0,0 l/m 0,0 km/h N 12,2 C 15,3 C 0,0 km/h
28.08.2016 05:00 14,9 C 82 % 1016,2 hPa 0,0 l/m 0,0 km/h N 11,9 C 14,9 C 0,0 km/h
28.08.2016 06:00 14,9 C 82 % 1016,3 hPa 0,0 l/m 0,0 km/h N 11,8 C 14,9 C 0,0 km/h
28.08.2016 07:00 15,4 C 82 % 1016,5 hPa 0,0 l/m 0,0 km/h N 12,3 C 15,4 C 0,8 km/h
28.08.2016 08:00 17,3 C 81 % 1016,7 hPa 0,0 l/m 0,1 km/h N 14,0 C 17,3 C 2,4 km/h
28.08.2016 09:00 20,5 C 81 % 1016,9 hPa 0,0 l/m 0,1 km/h N 17,0 C 20,5 C 2,4 km/h
28.08.2016 10:00 25,2 C 70 % 1017,0 hPa 0,0 l/m 0,6 km/h N 19,3 C 25,2 C 5,2 km/h
28.08.2016 11:00 28,6 C 58 % 1016,9 hPa 0,0 l/m 0,7 km/h N 19,5 C 28,6 C 6,0 km/h
28.08.2016 12:00 30,3 C 54 % 1016,6 hPa 0,0 l/m 0,8 km/h N 19,9 C 30,3 C 5,6 km/h
28.08.2016 13:00 30,5 C 55 % 1016,1 hPa 0,0 l/m 0,5 km/h N 20,4 C 30,5 C 5,2 km/h
28.08.2016 14:00 31,4 C 51 % 1015,5 hPa 0,0 l/m 1,3 km/h N 19,8 C 31,4 C 9,7 km/h
28.08.2016 15:00 31,0 C 51 % 1015,1 hPa 0,0 l/m 0,7 km/h N 19,5 C 31,0 C 6,4 km/h
28.08.2016 16:00 30,5 C 50 % 1014,8 hPa 0,0 l/m 1,1 km/h N 18,8 C 30,5 C 7,6 km/h
28.08.2016 17:00 30,1 C 50 % 1014,4 hPa 0,0 l/m 1,5 km/h N 18,5 C 30,1 C 8,0 km/h
28.08.2016 18:00 29,2 C 51 % 1014,3 hPa 0,0 l/m 2,0 km/h N 18,0 C 29,2 C 9,3 km/h
28.08.2016 19:00 27,7 C 53 % 1014,3 hPa 0,0 l/m 1,2 km/h N 17,3 C 27,7 C 7,2 km/h
28.08.2016 20:00 26,1 C 56 % 1014,4 hPa 0,0 l/m 0,3 km/h N 16,7 C 26,1 C 4,0 km/h
28.08.2016 21:00 24,3 C 62 % 1014,5 hPa 0,0 l/m 0,1 km/h N 16,4 C 24,3 C 3,6 km/h
28.08.2016 22:00 22,9 C 66 % 1014,4 hPa 0,0 l/m 0,1 km/h N 16,2 C 22,9 C 2,4 km/h
28.08.2016 23:00 21,4 C 72 % 1014,4 hPa 0,0 l/m 0,0 km/h N 16,2 C 21,4 C 0,0 km/h
Min-Datum _ 27.08.16 26.08.16 28.08.16 - 23.08.16 - 27.08.16 22.08.16 24.08.16
_ Min-Zeit 06:30 15:00 18:45 - 23:45 - 06:00 06:45 02:15
Minimum _ 12,6 C 44 % 1014,2 hPa - 0,0 km/h - 9,7 C 12,2 C 0,0 km/h
Max-Datum _ 28.08.16 25.08.16 23.08.16 22.08.16 22.08.16 - 28.08.16 28.08.16 22.08.16
_ Max-Zeit 14:45 07:00 07:45 00:00 06:45 - 13:45 14:45 06:45
Maximum _ 31,6 C 83 % 1027,1 hPa 0,5 l/m 16,4 km/h
N
- 21,1 C 31,6 C 40,2 km/h
N
Durchschnitt _ 20,7 C 69 % 1021,4 hPa #0,5 l/m 2,6 km/h N 14,4 C 20,4 C 9,1 km/h